sensor_id;sensor_type;location;lat;lon;timestamp;pressure;altitude;pressure_sealevel;temperature;humidity
40982;BME280;26708;50.304;19.028;2024-03-06T00:01:03;98488.78;;;5.78;62.19
40982;BME280;26708;50.304;19.028;2024-03-06T00:03:10;98457.34;;;5.57;62.38
40982;BME280;26708;50.304;19.028;2024-03-06T00:05:15;98503.59;;;5.82;62.75
40982;BME280;26708;50.304;19.028;2024-03-06T00:07:21;98377.56;;;4.89;62.81
40982;BME280;26708;50.304;19.028;2024-03-06T00:09:25;98302.91;;;4.69;62.35
40982;BME280;26708;50.304;19.028;2024-03-06T00:11:28;98480.03;;;5.69;62.19
40982;BME280;26708;50.304;19.028;2024-03-06T00:13:33;98501.00;;;5.84;61.85
40982;BME280;26708;50.304;19.028;2024-03-06T00:15:38;98510.56;;;5.86;61.51
40982;BME280;26708;50.304;19.028;2024-03-06T00:17:43;98485.25;;;5.72;61.33
40982;BME280;26708;50.304;19.028;2024-03-06T00:19:51;98512.25;;;5.84;61.29
40982;BME280;26708;50.304;19.028;2024-03-06T00:21:55;98514.00;;;5.85;60.98
40982;BME280;26708;50.304;19.028;2024-03-06T00:24:00;98436.84;;;5.20;60.74
40982;BME280;26708;50.304;19.028;2024-03-06T00:26:05;98435.25;;;5.28;60.67
40982;BME280;26708;50.304;19.028;2024-03-06T00:28:11;98353.97;;;4.76;60.41
40982;BME280;26708;50.304;19.028;2024-03-06T00:30:13;98525.97;;;5.74;60.64
40982;BME280;26708;50.304;19.028;2024-03-06T00:32:18;98524.16;;;5.69;60.61
40982;BME280;26708;50.304;19.028;2024-03-06T00:34:24;98444.22;;;4.96;61.11
40982;BME280;26708;50.304;19.028;2024-03-06T00:36:32;98502.13;;;5.44;61.02
40982;BME280;26708;50.304;19.028;2024-03-06T00:38:38;98512.44;;;5.43;61.29
40982;BME280;26708;50.304;19.028;2024-03-06T00:40:42;98535.19;;;5.56;61.10
40982;BME280;26708;50.304;19.028;2024-03-06T00:42:47;98540.38;;;5.56;61.50
40982;BME280;26708;50.304;19.028;2024-03-06T00:44:52;98535.13;;;5.54;61.36
40982;BME280;26708;50.304;19.028;2024-03-06T00:46:57;98543.78;;;5.53;61.04
40982;BME280;26708;50.304;19.028;2024-03-06T00:48:59;98515.00;;;5.40;61.29
40982;BME280;26708;50.304;19.028;2024-03-06T00:51:04;98451.84;;;4.89;61.23
40982;BME280;26708;50.304;19.028;2024-03-06T00:53:12;98476.53;;;5.16;61.29
40982;BME280;26708;50.304;19.028;2024-03-06T00:55:17;98357.78;;;4.47;60.97
40982;BME280;26708;50.304;19.028;2024-03-06T00:57:20;98537.69;;;5.51;60.88
40982;BME280;26708;50.304;19.028;2024-03-06T00:59:24;98537.56;;;5.42;61.01
40982;BME280;26708;50.304;19.028;2024-03-06T01:01:29;98543.31;;;5.28;60.66
40982;BME280;26708;50.304;19.028;2024-03-06T01:03:34;98536.97;;;5.11;62.25
40982;BME280;26708;50.304;19.028;2024-03-06T01:05:36;98546.53;;;5.13;62.15
40982;BME280;26708;50.304;19.028;2024-03-06T01:07:41;98518.38;;;4.88;62.03
40982;BME280;26708;50.304;19.028;2024-03-06T01:09:48;98545.31;;;4.95;62.17
40982;BME280;26708;50.304;19.028;2024-03-06T01:11:53;98460.22;;;4.30;62.04
40982;BME280;26708;50.304;19.028;2024-03-06T01:13:57;98506.28;;;4.46;62.23
40982;BME280;26708;50.304;19.028;2024-03-06T01:16:05;98476.28;;;4.15;62.97
40982;BME280;26708;50.304;19.028;2024-03-06T01:18:10;98554.31;;;4.72;62.47
40982;BME280;26708;50.304;19.028;2024-03-06T01:20:15;98466.72;;;4.13;62.74
40982;BME280;26708;50.304;19.028;2024-03-06T01:22:18;98550.75;;;4.65;62.79
40982;BME280;26708;50.304;19.028;2024-03-06T01:24:23;98548.06;;;4.62;62.80
40982;BME280;26708;50.304;19.028;2024-03-06T01:26:33;98553.25;;;4.61;62.95
40982;BME280;26708;50.304;19.028;2024-03-06T01:28:38;98553.25;;;4.61;62.90
40982;BME280;26708;50.304;19.028;2024-03-06T01:30:43;98552.34;;;4.60;62.97
40982;BME280;26708;50.304;19.028;2024-03-06T01:32:47;98421.84;;;3.71;63.39
40982;BME280;26708;50.304;19.028;2024-03-06T01:34:53;98555.84;;;4.62;63.44
40982;BME280;26708;50.304;19.028;2024-03-06T01:36:57;98528.69;;;4.44;63.00
40982;BME280;26708;50.304;19.028;2024-03-06T01:39:01;98562.69;;;4.59;63.67
40982;BME280;26708;50.304;19.028;2024-03-06T01:41:07;98562.69;;;4.59;63.64
40982;BME280;26708;50.304;19.028;2024-03-06T01:43:25;98568.75;;;4.59;63.58
40982;BME280;26708;50.304;19.028;2024-03-06T01:45:29;98561.81;;;4.58;63.43
40982;BME280;26708;50.304;19.028;2024-03-06T01:47:33;98566.16;;;4.59;63.89
40982;BME280;26708;50.304;19.028;2024-03-06T01:49:38;98536.44;;;4.44;63.54
40982;BME280;26708;50.304;19.028;2024-03-06T01:51:48;98560.09;;;4.59;63.64
40982;BME280;26708;50.304;19.028;2024-03-06T01:53:56;98563.53;;;4.58;63.38
40982;BME280;26708;50.304;19.028;2024-03-06T01:56:04;98564.38;;;4.57;63.03
40982;BME280;26708;50.304;19.028;2024-03-06T01:58:12;98551.09;;;4.42;63.23
40982;BME280;26708;50.304;19.028;2024-03-06T02:00:18;98558.22;;;4.52;62.96
40982;BME280;26708;50.304;19.028;2024-03-06T02:02:24;98567.69;;;4.50;63.40
40982;BME280;26708;50.304;19.028;2024-03-06T02:04:29;98523.94;;;4.23;63.35
40982;BME280;26708;50.304;19.028;2024-03-06T02:06:33;98568.56;;;4.50;63.07
40982;BME280;26708;50.304;19.028;2024-03-06T02:08:39;98571.13;;;4.49;63.41
40982;BME280;26708;50.304;19.028;2024-03-06T02:10:45;98571.16;;;4.50;63.91
40982;BME280;26708;50.304;19.028;2024-03-06T02:12:50;98533.69;;;4.35;63.52
40982;BME280;26708;50.304;19.028;2024-03-06T02:14:54;98434.03;;;3.77;63.22
40982;BME280;26708;50.304;19.028;2024-03-06T02:17:01;98532.03;;;4.37;63.22
40982;BME280;26708;50.304;19.028;2024-03-06T02:19:03;98557.31;;;4.50;63.04
40982;BME280;26708;50.304;19.028;2024-03-06T02:21:11;98509.16;;;4.18;63.18
40982;BME280;26708;50.304;19.028;2024-03-06T02:23:16;98483.72;;;3.99;62.96
40982;BME280;26708;50.304;19.028;2024-03-06T02:25:24;98440.09;;;3.77;63.30
40982;BME280;26708;50.304;19.028;2024-03-06T02:27:29;98466.16;;;3.86;62.92
40982;BME280;26708;50.304;19.028;2024-03-06T02:29:34;98563.25;;;4.44;64.00
40982;BME280;26708;50.304;19.028;2024-03-06T02:31:40;98563.28;;;4.46;64.20
40982;BME280;26708;50.304;19.028;2024-03-06T02:33:46;98568.47;;;4.47;63.96
40982;BME280;26708;50.304;19.028;2024-03-06T02:35:52;98528.31;;;4.26;63.53
40982;BME280;26708;50.304;19.028;2024-03-06T02:38:00;98551.94;;;4.41;63.08
40982;BME280;26708;50.304;19.028;2024-03-06T02:40:07;98570.97;;;4.43;63.40
40982;BME280;26708;50.304;19.028;2024-03-06T02:42:12;98532.69;;;4.28;63.11
40982;BME280;26708;50.304;19.028;2024-03-06T02:44:18;98557.16;;;4.42;63.29
40982;BME280;26708;50.304;19.028;2024-03-06T02:46:23;98460.97;;;3.86;62.90
40982;BME280;26708;50.304;19.028;2024-03-06T02:48:27;98451.28;;;3.76;62.54
40982;BME280;26708;50.304;19.028;2024-03-06T02:50:33;98560.41;;;4.34;62.29
40982;BME280;26708;50.304;19.028;2024-03-06T02:52:35;98562.06;;;4.30;62.14
40982;BME280;26708;50.304;19.028;2024-03-06T02:54:43;98566.41;;;4.30;62.26
40982;BME280;26708;50.304;19.028;2024-03-06T02:56:46;98539.13;;;4.08;62.05
40982;BME280;26708;50.304;19.028;2024-03-06T02:58:50;98480.16;;;3.57;61.81
40982;BME280;26708;50.304;19.028;2024-03-06T03:00:56;98523.13;;;3.88;62.28
40982;BME280;26708;50.304;19.028;2024-03-06T03:03:01;98570.34;;;4.14;61.98
40982;BME280;26708;50.304;19.028;2024-03-06T03:05:06;98470.19;;;3.37;61.99
40982;BME280;26708;50.304;19.028;2024-03-06T03:07:12;98541.84;;;3.78;61.79
40982;BME280;26708;50.304;19.028;2024-03-06T03:09:15;98543.94;;;3.92;62.01
40982;BME280;26708;50.304;19.028;2024-03-06T03:11:22;98528.06;;;3.77;61.98
40982;BME280;26708;50.304;19.028;2024-03-06T03:13:27;98483.44;;;3.50;61.66
40982;BME280;26708;50.304;19.028;2024-03-06T03:15:32;98460.41;;;3.25;61.98
40982;BME280;26708;50.304;19.028;2024-03-06T03:17:35;98505.81;;;3.48;61.89
40982;BME280;26708;50.304;19.028;2024-03-06T03:19:39;98568.19;;;3.97;61.52
40982;BME280;26708;50.304;19.028;2024-03-06T03:21:45;98481.53;;;3.43;61.72
40982;BME280;26708;50.304;19.028;2024-03-06T03:23:49;98568.09;;;3.91;61.54
40982;BME280;26708;50.304;19.028;2024-03-06T03:25:54;98467.06;;;3.16;61.82
40982;BME280;26708;50.304;19.028;2024-03-06T03:28:02;98459.09;;;3.07;61.43
40982;BME280;26708;50.304;19.028;2024-03-06T03:30:08;98575.69;;;3.85;61.55
40982;BME280;26708;50.304;19.028;2024-03-06T03:32:11;98481.56;;;3.09;61.47
40982;BME280;26708;50.304;19.028;2024-03-06T03:34:18;98583.41;;;3.84;61.99
40982;BME280;26708;50.304;19.028;2024-03-06T03:36:22;98459.75;;;2.98;61.92
40982;BME280;26708;50.304;19.028;2024-03-06T03:38:29;98501.00;;;3.28;61.77
40982;BME280;26708;50.304;19.028;2024-03-06T03:40:32;98580.78;;;3.81;61.84
40982;BME280;26708;50.304;19.028;2024-03-06T03:42:36;98434.59;;;2.93;61.75
40982;BME280;26708;50.304;19.028;2024-03-06T03:44:43;98469.31;;;3.02;61.80
40982;BME280;26708;50.304;19.028;2024-03-06T03:46:49;98432.69;;;2.86;61.97
40982;BME280;26708;50.304;19.028;2024-03-06T03:48:54;98590.22;;;3.80;61.85
40982;BME280;26708;50.304;19.028;2024-03-06T03:50:55;98595.34;;;3.79;61.77
40982;BME280;26708;50.304;19.028;2024-03-06T03:53:01;98586.59;;;3.72;61.44
40982;BME280;26708;50.304;19.028;2024-03-06T03:55:04;98565.41;;;3.53;61.59
40982;BME280;26708;50.304;19.028;2024-03-06T03:57:08;98415.78;;;2.64;62.08
40982;BME280;26708;50.304;19.028;2024-03-06T03:59:16;98496.78;;;2.99;62.42
40982;BME280;26708;50.304;19.028;2024-03-06T04:01:23;98538.66;;;3.18;62.63
40982;BME280;26708;50.304;19.028;2024-03-06T04:03:28;98478.63;;;2.96;62.15
40982;BME280;26708;50.304;19.028;2024-03-06T04:05:33;98474.22;;;2.92;62.36
40982;BME280;26708;50.304;19.028;2024-03-06T04:07:38;98600.16;;;3.62;62.69
40982;BME280;26708;50.304;19.028;2024-03-06T04:09:42;98590.63;;;3.61;62.82
40982;BME280;26708;50.304;19.028;2024-03-06T04:11:45;98600.19;;;3.65;62.14
40982;BME280;26708;50.304;19.028;2024-03-06T04:13:50;98598.50;;;3.66;62.27
40982;BME280;26708;50.304;19.028;2024-03-06T04:15:54;98516.84;;;3.09;62.16
40982;BME280;26708;50.304;19.028;2024-03-06T04:18:00;98598.56;;;3.69;61.70
40982;BME280;26708;50.304;19.028;2024-03-06T04:20:05;98595.94;;;3.67;61.67
40982;BME280;26708;50.304;19.028;2024-03-06T04:22:08;98589.94;;;3.68;61.85
40982;BME280;26708;50.304;19.028;2024-03-06T04:24:13;98590.75;;;3.67;61.96
40982;BME280;26708;50.304;19.028;2024-03-06T04:26:18;98597.72;;;3.68;61.95
40982;BME280;26708;50.304;19.028;2024-03-06T04:28:22;98496.00;;;3.01;61.83
40982;BME280;26708;50.304;19.028;2024-03-06T04:30:25;98493.41;;;3.01;62.26
40982;BME280;26708;50.304;19.028;2024-03-06T04:32:30;98465.31;;;2.81;62.25
40982;BME280;26708;50.304;19.028;2024-03-06T04:34:37;98516.44;;;2.92;62.37
40982;BME280;26708;50.304;19.028;2024-03-06T04:36:42;98607.00;;;3.62;62.52
40982;BME280;26708;50.304;19.028;2024-03-06T04:38:47;98584.22;;;3.47;62.44
40982;BME280;26708;50.304;19.028;2024-03-06T04:40:52;98500.16;;;2.95;62.39
40982;BME280;26708;50.304;19.028;2024-03-06T04:42:55;98577.16;;;3.40;62.63
40982;BME280;26708;50.304;19.028;2024-03-06T04:44:59;98603.34;;;3.54;62.96
40982;BME280;26708;50.304;19.028;2024-03-06T04:47:04;98607.81;;;3.59;62.82
40982;BME280;26708;50.304;19.028;2024-03-06T04:49:09;98591.16;;;3.48;62.69
40982;BME280;26708;50.304;19.028;2024-03-06T04:51:17;98612.97;;;3.59;62.65
40982;BME280;26708;50.304;19.028;2024-03-06T04:53:22;98609.59;;;3.60;62.93
40982;BME280;26708;50.304;19.028;2024-03-06T04:55:27;98591.25;;;3.53;62.65
40982;BME280;26708;50.304;19.028;2024-03-06T04:57:32;98614.78;;;3.62;62.46
40982;BME280;26708;50.304;19.028;2024-03-06T04:59:36;98612.13;;;3.59;62.50
40982;BME280;26708;50.304;19.028;2024-03-06T05:01:41;98618.94;;;3.55;62.62
40982;BME280;26708;50.304;19.028;2024-03-06T05:03:46;98604.03;;;3.45;62.79
40982;BME280;26708;50.304;19.028;2024-03-06T05:05:51;98617.03;;;3.48;62.78
40982;BME280;26708;50.304;19.028;2024-03-06T05:07:56;98616.94;;;3.45;62.71
40982;BME280;26708;50.304;19.028;2024-03-06T05:10:01;98590.56;;;3.26;62.56
40982;BME280;26708;50.304;19.028;2024-03-06T05:12:06;98626.34;;;3.42;62.70
40982;BME280;26708;50.304;19.028;2024-03-06T05:14:11;98520.13;;;2.69;62.32
40982;BME280;26708;50.304;19.028;2024-03-06T05:16:16;98532.19;;;2.70;62.67
40982;BME280;26708;50.304;19.028;2024-03-06T05:18:20;98625.94;;;3.28;62.83
40982;BME280;26708;50.304;19.028;2024-03-06T05:20:26;98623.38;;;3.28;62.99
40982;BME280;26708;50.304;19.028;2024-03-06T05:22:32;98622.56;;;3.29;62.89
40982;BME280;26708;50.304;19.028;2024-03-06T05:24:37;98532.03;;;2.64;62.98
40982;BME280;26708;50.304;19.028;2024-03-06T05:26:42;98571.72;;;2.99;63.14
40982;BME280;26708;50.304;19.028;2024-03-06T05:28:47;98628.81;;;3.39;63.28
40982;BME280;26708;50.304;19.028;2024-03-06T05:30:51;98633.22;;;3.41;62.84
40982;BME280;26708;50.304;19.028;2024-03-06T05:32:59;98626.34;;;3.43;62.54
40982;BME280;26708;50.304;19.028;2024-03-06T05:35:04;98611.25;;;3.26;62.57
40982;BME280;26708;50.304;19.028;2024-03-06T05:37:10;98624.19;;;3.27;62.50
40982;BME280;26708;50.304;19.028;2024-03-06T05:39:16;98547.16;;;2.82;62.81
40982;BME280;26708;50.304;19.028;2024-03-06T05:41:23;98645.13;;;3.36;62.94
40982;BME280;26708;50.304;19.028;2024-03-06T05:43:27;98649.38;;;3.34;63.01
40982;BME280;26708;50.304;19.028;2024-03-06T05:45:33;98631.78;;;3.20;62.93
40982;BME280;26708;50.304;19.028;2024-03-06T05:47:37;98651.81;;;3.28;62.80
40982;BME280;26708;50.304;19.028;2024-03-06T05:49:42;98645.72;;;3.26;63.41
40982;BME280;26708;50.304;19.028;2024-03-06T05:51:47;98660.50;;;3.30;63.83
40982;BME280;26708;50.304;19.028;2024-03-06T05:53:52;98653.72;;;3.35;63.82
40982;BME280;26708;50.304;19.028;2024-03-06T05:55:57;98609.13;;;3.11;63.94
40982;BME280;26708;50.304;19.028;2024-03-06T05:58:05;98657.25;;;3.37;63.46
40982;BME280;26708;50.304;19.028;2024-03-06T06:00:10;98629.25;;;3.21;63.79
40982;BME280;26708;50.304;19.028;2024-03-06T06:02:19;98651.13;;;3.35;63.62
40982;BME280;26708;50.304;19.028;2024-03-06T06:04:25;98662.56;;;3.43;63.51
40982;BME280;26708;50.304;19.028;2024-03-06T06:06:30;98661.72;;;3.43;63.67
40982;BME280;26708;50.304;19.028;2024-03-06T06:08:35;98648.47;;;3.32;63.82
40982;BME280;26708;50.304;19.028;2024-03-06T06:11:19;98668.69;;;3.45;64.09
40982;BME280;26708;50.304;19.028;2024-03-06T06:18:19;98460.75;;;2.40;63.97
40982;BME280;26708;50.304;19.028;2024-03-06T06:21:00;98662.28;;;3.64;64.28
40982;BME280;26708;50.304;19.028;2024-03-06T06:33:18;98592.06;;;3.50;62.94
40982;BME280;26708;50.304;19.028;2024-03-06T06:36:38;98488.97;;;2.96;62.45
40982;BME280;26708;50.304;19.028;2024-03-06T06:42:45;98669.25;;;4.00;62.46
40982;BME280;26708;50.304;19.028;2024-03-06T06:51:37;98656.91;;;4.24;62.06
40982;BME280;26708;50.304;19.028;2024-03-06T06:54:27;98539.03;;;3.33;61.52
40982;BME280;26708;50.304;19.028;2024-03-06T06:57:41;98418.59;;;2.73;61.49
40982;BME280;26708;50.304;19.028;2024-03-06T07:01:25;98481.50;;;3.06;61.30
40982;BME280;26708;50.304;19.028;2024-03-06T07:04:08;98516.94;;;3.46;61.26
40982;BME280;26708;50.304;19.028;2024-03-06T07:07:12;98466.28;;;3.18;61.23
40982;BME280;26708;50.304;19.028;2024-03-06T07:13:39;98384.91;;;2.67;60.75
40982;BME280;26708;50.304;19.028;2024-03-06T07:16:31;98522.16;;;3.47;60.53
40982;BME280;26708;50.304;19.028;2024-03-06T07:19:33;98473.41;;;3.28;60.65
40982;BME280;26708;50.304;19.028;2024-03-06T07:26:03;98669.66;;;4.53;60.92
40982;BME280;26708;50.304;19.028;2024-03-06T07:28:24;98666.41;;;4.62;61.38
40982;BME280;26708;50.304;19.028;2024-03-06T07:32:01;98402.31;;;3.10;61.04
40982;BME280;26708;50.304;19.028;2024-03-06T07:35:36;98506.41;;;3.74;60.73
40982;BME280;26708;50.304;19.028;2024-03-06T07:39:30;98655.00;;;4.54;60.09
40982;BME280;26708;50.304;19.028;2024-03-06T07:49:31;98443.84;;;3.53;59.93
40982;BME280;26708;50.304;19.028;2024-03-06T07:52:34;98540.81;;;4.06;59.87
40982;BME280;26708;50.304;19.028;2024-03-06T07:55:56;98437.84;;;3.55;59.96
40982;BME280;26708;50.304;19.028;2024-03-06T08:00:52;98652.16;;;4.82;59.40
40982;BME280;26708;50.304;19.028;2024-03-06T08:02:57;98420.84;;;3.66;59.42
40982;BME280;26708;50.304;19.028;2024-03-06T08:05:06;98565.97;;;4.50;59.64
40982;BME280;26708;50.304;19.028;2024-03-06T08:13:03;98692.44;;;5.46;59.54
40982;BME280;26708;50.304;19.028;2024-03-06T08:15:50;98429.31;;;3.98;59.26
40982;BME280;26708;50.304;19.028;2024-03-06T08:21:05;98541.38;;;4.72;59.44
40982;BME280;26708;50.304;19.028;2024-03-06T08:23:29;98608.00;;;5.19;59.44
40982;BME280;26708;50.304;19.028;2024-03-06T08:36:36;98517.06;;;5.10;58.84
40982;BME280;26708;50.304;19.028;2024-03-06T08:39:24;98514.44;;;5.08;58.50
40982;BME280;26708;50.304;19.028;2024-03-06T08:41:29;98458.66;;;4.84;58.67
40982;BME280;26708;50.304;19.028;2024-03-06T08:44:09;98428.22;;;4.74;58.07
40982;BME280;26708;50.304;19.028;2024-03-06T08:46:37;98697.56;;;6.38;58.24
40982;BME280;26708;50.304;19.028;2024-03-06T08:52:07;98433.88;;;4.98;57.92
40982;BME280;26708;50.304;19.028;2024-03-06T08:55:04;98576.22;;;5.79;58.08
40982;BME280;26708;50.304;19.028;2024-03-06T08:57:20;98573.75;;;5.87;58.14
40982;BME280;26708;50.304;19.028;2024-03-06T08:59:34;98573.03;;;5.97;57.71
40982;BME280;26708;50.304;19.028;2024-03-06T09:02:45;98448.22;;;5.30;57.79
40982;BME280;26708;50.304;19.028;2024-03-06T09:05:20;98602.09;;;6.27;57.01
40982;BME280;26708;50.304;19.028;2024-03-06T09:07:49;98496.63;;;5.80;56.49
40982;BME280;26708;50.304;19.028;2024-03-06T09:10:35;98449.69;;;5.68;56.05
40982;BME280;26708;50.304;19.028;2024-03-06T09:13:07;98613.09;;;6.67;55.92
40982;BME280;26708;50.304;19.028;2024-03-06T09:15:32;98432.44;;;5.71;55.44
40982;BME280;26708;50.304;19.028;2024-03-06T09:18:40;98549.59;;;6.52;55.66
40982;BME280;26708;50.304;19.028;2024-03-06T09:20:56;98548.72;;;6.50;56.06
40982;BME280;26708;50.304;19.028;2024-03-06T09:23:45;98427.25;;;5.70;55.68
40982;BME280;26708;50.304;19.028;2024-03-06T09:26:49;98536.50;;;6.46;55.39
40982;BME280;26708;50.304;19.028;2024-03-06T09:29:11;98531.13;;;6.31;55.34
40982;BME280;26708;50.304;19.028;2024-03-06T09:31:33;98438.66;;;5.82;55.37
40982;BME280;26708;50.304;19.028;2024-03-06T09:34:00;98669.28;;;7.19;55.36
40982;BME280;26708;50.304;19.028;2024-03-06T09:36:38;98563.53;;;6.57;55.07
40982;BME280;26708;50.304;19.028;2024-03-06T09:41:53;98403.88;;;5.71;55.15
40982;BME280;26708;50.304;19.028;2024-03-06T09:44:47;98686.81;;;7.35;54.79
40982;BME280;26708;50.304;19.028;2024-03-06T09:50:23;98597.47;;;6.69;54.70
40982;BME280;26708;50.304;19.028;2024-03-06T09:53:54;98544.44;;;6.56;54.89
40982;BME280;26708;50.304;19.028;2024-03-06T09:59:43;98579.91;;;6.50;54.77
40982;BME280;26708;50.304;19.028;2024-03-06T10:05:24;98560.63;;;6.36;55.23
40982;BME280;26708;50.304;19.028;2024-03-06T10:07:38;98684.91;;;7.19;55.25
40982;BME280;26708;50.304;19.028;2024-03-06T10:10:38;98710.09;;;7.23;55.37
40982;BME280;26708;50.304;19.028;2024-03-06T10:12:53;98686.59;;;7.17;54.84
40982;BME280;26708;50.304;19.028;2024-03-06T10:15:04;98514.06;;;5.90;55.05
40982;BME280;26708;50.304;19.028;2024-03-06T10:46:20;98456.88;;;5.27;58.30
40982;BME280;26708;50.304;19.028;2024-03-06T10:49:13;98604.28;;;6.01;58.61
40982;BME280;26708;50.304;19.028;2024-03-06T11:20:14;98712.06;;;6.76;62.12
40982;BME280;26708;50.304;19.028;2024-03-06T12:33:06;98528.25;;;5.56;63.44
40982;BME280;26708;50.304;19.028;2024-03-06T16:12:52;98641.88;;;6.78;65.97
40982;BME280;26708;50.304;19.028;2024-03-06T16:23:43;98500.94;;;5.79;66.41
40982;BME280;26708;50.304;19.028;2024-03-06T16:28:34;98550.16;;;6.28;66.75
40982;BME280;26708;50.304;19.028;2024-03-06T16:30:39;98632.13;;;6.66;66.16
40982;BME280;26708;50.304;19.028;2024-03-06T16:32:55;98694.09;;;6.94;66.69
40982;BME280;26708;50.304;19.028;2024-03-06T16:41:15;98650.28;;;6.63;67.08
40982;BME280;26708;50.304;19.028;2024-03-06T16:43:21;98570.72;;;6.15;67.32
40982;BME280;26708;50.304;19.028;2024-03-06T16:48:11;98704.38;;;6.85;67.48
40982;BME280;26708;50.304;19.028;2024-03-06T16:50:29;98707.75;;;6.78;67.14
40982;BME280;26708;50.304;19.028;2024-03-06T16:52:51;98570.28;;;5.86;67.20
40982;BME280;26708;50.304;19.028;2024-03-06T16:55:27;98523.72;;;5.45;67.80
40982;BME280;26708;50.304;19.028;2024-03-06T16:57:36;98588.53;;;5.89;67.86
40982;BME280;26708;50.304;19.028;2024-03-06T17:03:16;98707.25;;;6.47;68.59
40982;BME280;26708;50.304;19.028;2024-03-06T17:06:46;98545.34;;;5.42;68.49
40982;BME280;26708;50.304;19.028;2024-03-06T17:12:17;98531.34;;;5.34;68.54
40982;BME280;26708;50.304;19.028;2024-03-06T17:15:29;98699.13;;;6.27;69.12
40982;BME280;26708;50.304;19.028;2024-03-06T17:17:42;98513.81;;;5.21;68.79
40982;BME280;26708;50.304;19.028;2024-03-06T17:20:08;98651.19;;;6.09;69.15
40982;BME280;26708;50.304;19.028;2024-03-06T17:22:55;98549.63;;;5.42;69.41
40982;BME280;26708;50.304;19.028;2024-03-06T17:25:01;98635.44;;;6.00;69.81
40982;BME280;26708;50.304;19.028;2024-03-06T17:27:10;98671.34;;;6.26;69.13
40982;BME280;26708;50.304;19.028;2024-03-06T17:29:23;98536.59;;;5.37;69.16
40982;BME280;26708;50.304;19.028;2024-03-06T17:31:40;98586.47;;;5.69;69.00
40982;BME280;26708;50.304;19.028;2024-03-06T17:33:46;98551.38;;;5.43;69.25
40982;BME280;26708;50.304;19.028;2024-03-06T17:35:54;98574.97;;;5.56;69.09
40982;BME280;26708;50.304;19.028;2024-03-06T17:38:01;98712.47;;;6.50;69.44
40982;BME280;26708;50.304;19.028;2024-03-06T17:40:05;98635.31;;;5.92;69.10
40982;BME280;26708;50.304;19.028;2024-03-06T17:42:12;98722.91;;;6.51;69.00
40982;BME280;26708;50.304;19.028;2024-03-06T17:44:17;98625.56;;;5.79;68.89
40982;BME280;26708;50.304;19.028;2024-03-06T17:46:22;98651.88;;;6.00;69.03
40982;BME280;26708;50.304;19.028;2024-03-06T17:48:29;98721.47;;;6.18;69.19
40982;BME280;26708;50.304;19.028;2024-03-06T17:50:35;98677.16;;;6.09;69.31
40982;BME280;26708;50.304;19.028;2024-03-06T17:52:42;98631.59;;;5.77;69.49
40982;BME280;26708;50.304;19.028;2024-03-06T17:54:47;98696.28;;;6.14;69.67
40982;BME280;26708;50.304;19.028;2024-03-06T17:56:53;98702.56;;;6.28;69.26
40982;BME280;26708;50.304;19.028;2024-03-06T17:59:00;98633.28;;;5.76;69.14
40982;BME280;26708;50.304;19.028;2024-03-06T18:01:04;98728.66;;;6.34;69.61
40982;BME280;26708;50.304;19.028;2024-03-06T18:03:10;98728.63;;;6.31;69.38
40982;BME280;26708;50.304;19.028;2024-03-06T18:05:12;98677.09;;;6.06;69.70
40982;BME280;26708;50.304;19.028;2024-03-06T18:07:18;98724.25;;;6.30;69.52
40982;BME280;26708;50.304;19.028;2024-03-06T18:09:28;98720.50;;;6.13;69.37
40982;BME280;26708;50.304;19.028;2024-03-06T18:11:38;98593.00;;;5.49;69.55
40982;BME280;26708;50.304;19.028;2024-03-06T18:13:45;98607.88;;;5.59;69.49
40982;BME280;26708;50.304;19.028;2024-03-06T18:15:53;98491.63;;;4.91;69.54
40982;BME280;26708;50.304;19.028;2024-03-06T18:17:58;98618.41;;;5.68;69.24
40982;BME280;26708;50.304;19.028;2024-03-06T18:20:05;98710.19;;;6.17;69.28
40982;BME280;26708;50.304;19.028;2024-03-06T18:22:40;98742.44;;;6.30;69.08
40982;BME280;26708;50.304;19.028;2024-03-06T18:25:18;98633.06;;;5.64;69.34
40982;BME280;26708;50.304;19.028;2024-03-06T18:27:27;98738.09;;;6.29;69.25
40982;BME280;26708;50.304;19.028;2024-03-06T18:29:36;98589.13;;;5.26;69.20
40982;BME280;26708;50.304;19.028;2024-03-06T18:31:52;98501.72;;;4.76;69.35
40982;BME280;26708;50.304;19.028;2024-03-06T18:36:58;98485.75;;;4.55;69.14
40982;BME280;26708;50.304;19.028;2024-03-06T18:39:08;98690.31;;;5.70;69.51
40982;BME280;26708;50.304;19.028;2024-03-06T18:41:17;98657.63;;;5.35;69.34
40982;BME280;26708;50.304;19.028;2024-03-06T18:43:22;98751.56;;;6.07;68.61
40982;BME280;26708;50.304;19.028;2024-03-06T18:45:41;98752.41;;;6.06;68.25
40982;BME280;26708;50.304;19.028;2024-03-06T18:50:15;98707.78;;;5.79;68.80
40982;BME280;26708;50.304;19.028;2024-03-06T18:52:22;98635.22;;;5.39;68.38
40982;BME280;26708;50.304;19.028;2024-03-06T18:54:32;98595.63;;;5.06;68.12
40982;BME280;26708;50.304;19.028;2024-03-06T18:56:42;98542.88;;;4.61;68.28
40982;BME280;26708;50.304;19.028;2024-03-06T18:58:51;98703.75;;;5.50;68.50
40982;BME280;26708;50.304;19.028;2024-03-06T19:00:59;98650.53;;;5.27;68.58
40982;BME280;26708;50.304;19.028;2024-03-06T19:03:12;98622.28;;;4.97;68.87
40982;BME280;26708;50.304;19.028;2024-03-06T19:05:50;98568.72;;;4.58;69.32
40982;BME280;26708;50.304;19.028;2024-03-06T19:11:08;98524.97;;;4.31;68.82
40982;BME280;26708;50.304;19.028;2024-03-06T19:13:33;98682.56;;;5.27;68.99
40982;BME280;26708;50.304;19.028;2024-03-06T19:15:45;98796.91;;;5.78;69.01
40982;BME280;26708;50.304;19.028;2024-03-06T19:18:37;98538.63;;;4.23;68.86
40982;BME280;26708;50.304;19.028;2024-03-06T19:21:41;98710.56;;;5.43;69.16
40982;BME280;26708;50.304;19.028;2024-03-06T19:24:37;98775.28;;;5.80;68.51
40982;BME280;26708;50.304;19.028;2024-03-06T19:26:57;98535.31;;;4.30;68.37
40982;BME280;26708;50.304;19.028;2024-03-06T19:29:19;98657.88;;;5.06;68.46
40982;BME280;26708;50.304;19.028;2024-03-06T19:32:00;98514.41;;;4.22;68.85
40982;BME280;26708;50.304;19.028;2024-03-06T19:34:21;98633.72;;;5.07;68.04